createdAt,value
2019-05-17T00:01:37.978Z,6.5
2019-05-17T00:07:10.900Z,6.6
2019-05-17T00:12:43.808Z,6.6
2019-05-17T00:18:17.193Z,6.7
2019-05-17T00:23:49.597Z,6.6
2019-05-17T00:29:22.530Z,6.7
2019-05-17T00:34:56.352Z,6.8
2019-05-17T00:40:28.494Z,6.7
2019-05-17T00:46:01.402Z,6.6
2019-05-17T00:51:36.693Z,6.6
2019-05-17T00:57:07.576Z,6.6
2019-05-17T01:02:40.220Z,6.9
2019-05-17T01:08:13.330Z,6.4
2019-05-17T01:13:46.649Z,6.1
2019-05-17T01:19:17.559Z,6.1
2019-05-17T01:24:49.602Z,5.5
2019-05-17T01:30:21.599Z,5.4
2019-05-17T01:35:53.641Z,5.5
2019-05-17T01:41:26.628Z,5.6
2019-05-17T01:46:57.488Z,5.4
2019-05-17T01:52:29.476Z,5.4
2019-05-17T01:58:01.414Z,5.5
2019-05-17T02:03:33.318Z,5.2
2019-05-17T02:09:06.304Z,5.6
2019-05-17T02:14:37.484Z,5.6
2019-05-17T02:20:09.189Z,5.6
2019-05-17T02:25:41.087Z,5.4
2019-05-17T02:31:13.403Z,5.3
2019-05-17T02:36:44.984Z,5.4
2019-05-17T02:42:16.878Z,5.4
2019-05-17T02:47:48.788Z,5.3
2019-05-17T02:53:22.923Z,5.1
2019-05-17T02:58:53.275Z,5.2
2019-05-17T03:04:24.545Z,5.6
2019-05-17T03:10:12.040Z,5.6
2019-05-17T03:15:28.421Z,5.3
2019-05-17T03:21:03.667Z,5
2019-05-17T03:26:32.870Z,5.4
2019-05-17T03:32:08.263Z,4.9
2019-05-17T03:37:37.774Z,4.8
2019-05-17T03:43:08.167Z,4.4
2019-05-17T03:48:43.269Z,4.3
2019-05-17T03:54:13.738Z,4
2019-05-17T03:59:44.288Z,4.2
2019-05-17T04:05:15.661Z,4.2
2019-05-17T04:10:47.657Z,4.5
2019-05-17T04:16:19.369Z,5.1
2019-05-17T04:21:53.608Z,4.9
2019-05-17T04:27:23.298Z,4.9
2019-05-17T04:32:55.243Z,4.5
2019-05-17T04:38:27.362Z,4.6
2019-05-17T04:44:02.398Z,4.4
2019-05-17T04:49:33.025Z,4.3
2019-05-17T04:55:04.239Z,4.9
2019-05-17T05:00:35.609Z,5.5
2019-05-17T05:06:07.814Z,5.7
2019-05-17T05:11:53.064Z,5.6
2019-05-17T05:17:12.825Z,5.9
2019-05-17T05:22:44.707Z,5.8
2019-05-17T05:28:17.084Z,6.1
2019-05-17T05:33:49.394Z,6.2
2019-05-17T05:39:22.808Z,6.6
2019-05-17T05:44:55.502Z,6.7
2019-05-17T05:50:26.814Z,7.2
2019-05-17T05:55:59.414Z,7.2
2019-05-17T06:01:32.545Z,7.2
2019-05-17T06:07:04.546Z,7.4
2019-05-17T06:12:37.184Z,7.6
2019-05-17T06:18:11.950Z,8
2019-05-17T06:23:43.340Z,8
2019-05-17T06:29:17.065Z,8
2019-05-17T06:34:51.437Z,8.3
2019-05-17T06:40:24.357Z,8
2019-05-17T06:45:57.968Z,8.1
2019-05-17T06:51:31.707Z,8.4
2019-05-17T06:57:05.074Z,8.4
2019-05-17T07:02:40.173Z,8.5
2019-05-17T07:08:12.445Z,8.6
2019-05-17T07:13:46.134Z,8.8
2019-05-17T07:19:19.848Z,9.3
2019-05-17T07:24:53.664Z,9.1
2019-05-17T07:30:27.858Z,9.2
2019-05-17T07:36:01.184Z,9.1
2019-05-17T07:41:34.987Z,9.3
2019-05-17T07:47:09.698Z,9.5
2019-05-17T07:52:42.538Z,9.6
2019-05-17T07:58:16.542Z,10
2019-05-17T08:03:50.563Z,10.3
2019-05-17T08:09:24.917Z,10.7
2019-05-17T08:14:59.806Z,10.8
2019-05-17T08:20:31.471Z,11
2019-05-17T08:26:04.791Z,11
2019-05-17T08:31:40.174Z,11
2019-05-17T08:37:11.492Z,11.1
2019-05-17T08:42:44.915Z,11.3
2019-05-17T08:53:54.094Z,12.9
2019-05-17T08:59:29.610Z,12.2
2019-05-17T09:10:40.703Z,11.8
2019-05-17T09:21:50.286Z,13.1
2019-05-17T09:33:00.252Z,12.4
2019-05-17T09:38:32.930Z,12.3
2019-05-17T09:49:42.607Z,13
2019-05-17T10:00:53.552Z,14.2
2019-05-17T10:12:04.157Z,13.6
2019-05-17T10:17:39.048Z,13.6
2019-05-17T10:23:13.341Z,14.5
2019-05-17T10:28:47.395Z,14.5
2019-05-17T10:34:22.147Z,14.4
2019-05-17T10:39:57.019Z,14.5
2019-05-17T10:45:31.315Z,14.6
2019-05-17T10:51:06.075Z,14.6
2019-05-17T10:56:40.714Z,15
2019-05-17T11:02:15.082Z,15.2
2019-05-17T11:07:50.367Z,15.1
2019-05-17T11:13:23.661Z,15.5
2019-05-17T11:18:58.005Z,15.3
2019-05-17T11:24:32.298Z,15.6
2019-05-17T11:30:06.539Z,15.4
2019-05-17T11:35:40.845Z,15.9
2019-05-17T11:41:20.892Z,15.7
2019-05-17T11:46:49.463Z,15.8
2019-05-17T11:52:23.795Z,15.9
2019-05-17T11:57:58.115Z,16.4
2019-05-17T12:03:32.492Z,16.4
2019-05-17T12:09:07.557Z,16.4
2019-05-17T12:14:42.691Z,15.8
2019-05-17T12:20:17.774Z,16.3
2019-05-17T12:25:52.905Z,15.8
2019-05-17T12:31:28.068Z,15.8
2019-05-17T12:37:03.032Z,16.6
2019-05-17T12:42:37.571Z,16.5
2019-05-17T12:48:12.698Z,17.3
2019-05-17T12:53:47.913Z,17.3
2019-05-17T12:59:22.836Z,17.2
2019-05-17T13:04:57.887Z,17.5
2019-05-17T13:10:34.148Z,18.2
2019-05-17T13:16:17.203Z,18.3
2019-05-17T13:21:43.224Z,19.2
2019-05-17T13:27:18.384Z,18.9
2019-05-17T13:32:53.448Z,19
2019-05-17T13:38:28.527Z,18.9
2019-05-17T13:44:03.512Z,19.4
2019-05-17T13:49:38.538Z,17.8
2019-05-17T13:55:14.169Z,17.3
2019-05-17T14:00:49.604Z,16.4
2019-05-17T14:06:24.519Z,16.9
2019-05-17T14:11:59.670Z,17
2019-05-17T14:17:34.442Z,16.9
2019-05-17T14:23:09.363Z,16.5
2019-05-17T14:28:44.332Z,16.6
2019-05-17T14:34:19.725Z,16.5
2019-05-17T14:39:54.015Z,16.5
2019-05-17T14:45:28.869Z,16.6
2019-05-17T14:51:03.751Z,16.4
2019-05-17T14:56:38.502Z,16.1
2019-05-17T15:02:13.344Z,15.4
2019-05-17T15:07:47.958Z,15.3
2019-05-17T15:13:22.560Z,15.1
2019-05-17T15:18:57.189Z,15
2019-05-17T15:24:31.841Z,15
2019-05-17T15:30:10.782Z,14.7
2019-05-17T15:35:45.309Z,14.5
2019-05-17T15:41:19.735Z,14.8
2019-05-17T15:46:54.186Z,14.7
2019-05-17T15:52:28.717Z,14.5
2019-05-17T15:58:03.285Z,14.5
2019-05-17T16:03:37.744Z,14.7
2019-05-17T16:09:12.193Z,14.5
2019-05-17T16:14:46.616Z,14.7
2019-05-17T16:20:21.018Z,14.5
2019-05-17T16:25:55.329Z,14.5
2019-05-17T16:31:29.547Z,14.3
2019-05-17T16:37:03.776Z,14.4
2019-05-17T16:42:37.876Z,14.3
2019-05-17T16:48:16.445Z,14.1
2019-05-17T16:53:50.562Z,14.1
2019-05-17T16:59:24.635Z,13.6
2019-05-17T17:04:58.598Z,13.6
2019-05-17T17:10:32.543Z,13.2
2019-05-17T17:16:06.466Z,12.3
2019-05-17T17:21:40.313Z,12.2
2019-05-17T17:27:14.057Z,12
2019-05-17T17:32:47.776Z,12
2019-05-17T17:38:21.546Z,11.9
2019-05-17T17:43:58.349Z,11.8
2019-05-17T17:49:29.117Z,11.7
2019-05-17T17:55:02.770Z,11.8
2019-05-17T18:00:36.294Z,11.9
2019-05-17T18:06:09.109Z,11.9
2019-05-17T18:11:41.941Z,12
2019-05-17T18:17:14.803Z,11.9
2019-05-17T18:22:48.511Z,11.6
2019-05-17T18:28:22.040Z,11.5
2019-05-17T18:33:54.813Z,11.7
2019-05-17T18:39:27.930Z,11.6
2019-05-17T18:45:01.476Z,11.6
2019-05-17T18:50:34.711Z,11.5
2019-05-17T18:56:07.971Z,11.5
2019-05-17T19:01:40.785Z,11.5
2019-05-17T19:07:13.454Z,11.5
2019-05-17T19:12:46.269Z,11.5
2019-05-17T19:18:18.945Z,11.5
2019-05-17T19:23:51.646Z,11.5
2019-05-17T19:29:24.366Z,11.5
2019-05-17T19:34:57.116Z,11.3
2019-05-17T19:40:29.846Z,11.4
2019-05-17T19:46:02.584Z,11.4
2019-05-17T19:51:35.276Z,11.4
2019-05-17T19:57:08.044Z,11.3
2019-05-17T20:02:40.791Z,11
2019-05-17T20:08:13.887Z,10.7
2019-05-17T20:13:46.536Z,10.7
2019-05-17T20:19:19.254Z,10.8
2019-05-17T20:24:51.899Z,10.8
2019-05-17T20:30:24.507Z,10.9
2019-05-17T20:35:57.161Z,11
2019-05-17T20:41:29.873Z,11
2019-05-17T20:47:02.520Z,10.9
2019-05-17T20:52:35.202Z,10.7
2019-05-17T20:58:07.863Z,10.7
2019-05-17T21:03:40.505Z,10.6
2019-05-17T21:09:13.111Z,10.8
2019-05-17T21:14:45.815Z,10.8
2019-05-17T21:20:18.472Z,10.8
2019-05-17T21:25:51.130Z,10.9
2019-05-17T21:31:23.721Z,10.8
2019-05-17T21:36:56.349Z,10.8
2019-05-17T21:42:29.061Z,10.9
2019-05-17T21:48:01.687Z,10.9
2019-05-17T21:53:34.297Z,11
2019-05-17T21:59:07.041Z,10.9
2019-05-17T22:04:39.648Z,10.8
2019-05-17T22:10:12.295Z,10.8
2019-05-17T22:15:46.658Z,10.7
2019-05-17T22:21:17.614Z,10.4
2019-05-17T22:26:50.151Z,10.4
2019-05-17T22:32:22.776Z,10.2
2019-05-17T22:37:55.439Z,10.2
2019-05-17T22:43:28.047Z,10.2
2019-05-17T22:49:00.652Z,10.2
2019-05-17T22:54:33.192Z,10.2
2019-05-17T23:00:05.841Z,10.2
2019-05-17T23:05:38.436Z,10.2
2019-05-17T23:11:11.050Z,10.2
2019-05-17T23:16:51.371Z,10.2
2019-05-17T23:22:16.258Z,10.1
2019-05-17T23:27:48.850Z,10.1
2019-05-17T23:33:21.490Z,10.1
2019-05-17T23:38:54.007Z,10.1
2019-05-17T23:44:26.619Z,10.2
2019-05-17T23:49:59.117Z,10.2
2019-05-17T23:55:31.654Z,10.1
